Time;durP1;ratioP1;P1;durP2;ratioP2;P2;SDS_P1;SDS_P2;PMS_P1;PMS_P2;Temp;Humidity;BMP_temperature;BMP_pressure;BME280_temperature;BME280_humidity;BME280_pressure;Samples;Min_cycle;Max_cycle;Signal;HPM_P1;HPM_P2
2021/11/28 00:00:51;;;;;;;28.50;15.50;;;;;;;1.29;82.72;98054.95;231015;1192;139388;-68
2021/11/28 00:06:05;;;;;;;27.10;15.00;;;;;;;1.25;82.72;98051.30;230579;1192;139889;-67
2021/11/28 00:11:27;;;;;;;55.40;23.30;;;;;;;1.26;83.03;98055.14;230184;1192;138938;-67
2021/11/28 00:16:43;;;;;;;32.30;19.30;;;;;;;1.33;83.07;98056.29;230127;1192;140315;-66
2021/11/28 00:21:53;;;;;;;35.20;22.60;;;;;;;1.40;82.97;98043.91;230202;1192;139290;-65
2021/11/28 00:26:58;;;;;;;31.40;20.00;;;;;;;1.40;83.19;98035.51;228961;1193;143160;-67
2021/11/28 00:32:05;;;;;;;30.10;14.90;;;;;;;1.40;83.13;98033.81;229618;1192;139955;-66
2021/11/28 00:37:14;;;;;;;25.10;12.70;;;;;;;1.41;82.99;98024.96;229892;1192;140316;-66
2021/11/28 00:42:22;;;;;;;26.20;13.90;;;;;;;1.40;83.21;98033.81;229392;1192;161685;-67
2021/11/28 00:47:27;;;;;;;32.30;18.70;;;;;;;1.41;83.23;98048.72;228974;1192;139823;-65
2021/11/28 00:52:34;;;;;;;26.20;12.70;;;;;;;1.44;83.50;98050.47;229001;1193;139641;-67
2021/11/28 00:57:38;;;;;;;26.40;15.50;;;;;;;1.49;83.00;98049.64;229071;1192;139538;-66
2021/11/28 01:02:43;;;;;;;34.70;16.40;;;;;;;1.45;82.95;98037.33;229888;1192;150813;-67
2021/11/28 01:08:07;;;;;;;27.60;14.40;;;;;;;1.38;83.02;98045.64;229820;1192;139759;-69
2021/11/28 01:13:15;;;;;;;26.60;14.60;;;;;;;1.24;83.08;98047.13;229322;1192;138538;-68
2021/11/28 01:18:37;;;;;;;;;;;;;;;;;;;;;
2021/11/28 01:24:07;;;;;;;28.10;16.30;;;;;;;1.07;82.40;98029.98;229570;1192;159805;-69
2021/11/28 01:29:31;;;;;;;26.20;15.30;;;;;;;0.95;82.28;98031.59;229479;1192;139167;-67
2021/11/28 01:34:36;;;;;;;27.90;15.60;;;;;;;0.84;82.38;98029.89;230229;1193;139903;-68
2021/11/28 01:39:49;;;;;;;24.30;15.80;;;;;;;0.66;82.40;98027.42;229831;1193;139821;-67
2021/11/28 01:44:59;;;;;;;29.40;15.90;;;;;;;0.53;82.21;98026.52;229679;1193;140230;-68
2021/11/28 01:50:16;;;;;;;30.50;16.00;;;;;;;0.41;81.80;98009.29;229297;1193;139416;-68
2021/11/28 01:55:26;;;;;;;35.00;19.60;;;;;;;0.36;82.26;98002.30;230363;1193;142578;-68
2021/11/28 02:00:46;;;;;;;27.80;16.70;;;;;;;0.23;81.96;98004.00;230267;1193;141004;-69
2021/11/28 02:06:14;;;;;;;32.40;16.50;;;;;;;0.10;82.40;98011.80;230022;1192;139767;-69
2021/11/28 02:11:19;;;;;;;37.80;18.90;;;;;;;0.06;82.54;98015.98;229810;1193;139243;-68
2021/11/28 02:16:24;;;;;;;37.90;20.40;;;;;;;0.13;82.94;98013.08;229156;1193;139420;-68
2021/11/28 02:21:36;;;;;;;35.10;19.60;;;;;;;0.21;83.08;98006.02;228304;1193;139902;-67
2021/11/28 02:26:43;;;;;;;36.30;25.10;;;;;;;0.19;82.97;98000.71;229539;1193;139391;-67
2021/11/28 02:32:08;;;;;;;35.60;18.30;;;;;;;0.17;83.35;97994.77;228957;1192;138547;-67
2021/11/28 02:37:22;;;;;;;38.10;20.70;;;;;;;0.21;82.77;98009.21;228938;1193;139454;-67
2021/11/28 02:42:58;;;;;;;31.00;19.20;;;;;;;0.21;83.22;98016.08;228675;1193;162145;-67
2021/11/28 02:48:17;;;;;;;36.50;20.40;;;;;;;0.21;83.19;98018.16;228661;1193;138784;-67
2021/11/28 02:53:24;;;;;;;39.20;21.10;;;;;;;0.21;83.39;98017.52;229127;1193;139717;-71
2021/11/28 02:58:30;;;;;;;;;;;;;;;0.25;83.46;98013.71;228316;1193;139417;-66
2021/11/28 03:03:35;;;;;;;37.60;19.50;;;;;;;0.23;82.97;98014.13;228849;1193;124928;-66
2021/11/28 03:08:43;;;;;;;44.00;24.00;;;;;;;0.22;83.56;98018.52;229260;1193;143794;-66
2021/11/28 03:13:51;;;;;;;41.10;21.10;;;;;;;0.19;83.20;98007.73;228660;1193;138607;-66
2021/11/28 03:18:57;;;;;;;41.20;23.50;;;;;;;0.17;82.72;98005.81;228726;1193;139751;-66
2021/11/28 03:24:05;;;;;;;42.80;23.40;;;;;;;0.12;82.84;98011.72;229053;1193;138685;-66
2021/11/28 03:29:20;;;;;;;43.70;23.70;;;;;;;0.02;82.73;98003.23;228339;1193;139634;-66
2021/11/28 03:34:30;;;;;;;38.40;21.20;;;;;;;-0.03;83.10;97999.48;228839;1193;139567;-66
2021/11/28 03:39:35;;;;;;;46.70;25.10;;;;;;;-0.03;82.93;98006.58;229964;1193;139718;-67
2021/11/28 03:44:42;;;;;;;43.30;24.90;;;;;;;-0.02;82.94;98012.45;229129;1193;141173;-67
2021/11/28 03:49:47;;;;;;;42.60;25.30;;;;;;;-0.05;82.94;98009.68;230412;1192;138970;-68
2021/11/28 03:54:52;;;;;;;44.20;24.20;;;;;;;-0.12;82.63;98002.78;230512;1193;139628;-67
2021/11/28 03:59:57;;;;;;;46.80;24.20;;;;;;;-0.15;82.78;97998.60;230521;1192;139809;-67
2021/11/28 04:05:04;;;;;;;47.50;25.70;;;;;;;-0.10;83.22;98001.80;230618;1193;140570;-68
2021/11/28 04:10:11;;;;;;;49.80;28.70;;;;;;;-0.00;83.25;98007.48;228998;1192;138931;-68
2021/11/28 04:15:21;;;;;;;51.00;27.80;;;;;;;0.10;83.76;98004.72;230416;1192;139467;-68
2021/11/28 04:20:34;;;;;;;59.30;26.40;;;;;;;0.20;83.61;98012.69;229600;1192;138800;-67
2021/11/28 04:26:00;;;;;;;59.30;28.80;;;;;;;0.33;83.40;98019.05;228182;1193;140338;-66
2021/11/28 04:31:15;;;;;;;61.90;32.00;;;;;;;0.40;83.51;98011.23;230107;1193;140755;-69
2021/11/28 04:36:19;;;;;;;55.20;29.80;;;;;;;0.42;83.55;98004.13;228836;1193;139688;-68
2021/11/28 04:41:25;;;;;;;58.00;26.50;;;;;;;0.40;83.30;97999.29;228409;1193;139031;-71
2021/11/28 04:46:32;;;;;;;57.20;27.60;;;;;;;0.41;83.30;98007.67;229291;1193;139630;-69
2021/11/28 04:51:59;;;;;;;65.10;30.50;;;;;;;0.36;83.08;98015.24;227994;1193;139114;-69
2021/11/28 04:57:05;;;;;;;52.50;28.80;;;;;;;0.32;83.50;98022.20;229515;1193;138545;-66
2021/11/28 05:25:30;;;;;;;63.10;29.60;;;;;;;-0.02;84.76;98047.10;233023;1208;663078;-69
2021/11/28 05:30:55;;;;;;;58.40;25.10;;;;;;;0.03;84.64;98043.32;226603;1198;221451;-67
2021/11/28 05:36:12;;;;;;;62.70;29.30;;;;;;;0.12;84.24;98045.89;228630;1197;138211;-69
2021/11/28 05:41:51;;;;;;;46.10;21.30;;;;;;;0.19;84.28;98048.61;227772;1198;138746;-68
2021/11/28 05:47:37;;;;;;;56.80;24.20;;;;;;;0.20;84.14;98048.65;228130;1198;139892;-67
2021/11/28 05:53:15;;;;;;;;;;;;;;;;;;;;;
2021/11/28 05:58:39;;;;;;;;;;;;;;;;;;;;;
2021/11/28 06:04:15;;;;;;;60.80;25.00;;;;;;;0.35;84.06;98050.80;228771;1192;138722;-67
2021/11/28 06:09:17;;;;;;;62.10;26.00;;;;;;;0.32;84.09;98048.77;229421;1192;139090;-69
2021/11/28 06:14:20;;;;;;;57.00;29.80;;;;;;;0.35;84.19;98051.17;229089;1191;139910;-67
2021/11/28 06:20:03;;;;;;;50.90;25.40;;;;;;;0.39;84.04;98041.60;229450;1192;139544;-66
2021/11/28 06:25:07;;;;;;;56.10;26.90;;;;;;;0.37;83.82;98038.50;228512;1192;139483;-66
2021/11/28 06:30:44;;;;;;;61.80;24.70;;;;;;;0.32;83.65;98044.38;229651;1191;140002;-66
2021/11/28 06:36:09;;;;;;;55.40;28.00;;;;;;;0.32;83.87;98040.71;229363;1191;139888;-66
2021/11/28 06:41:57;;;;;;;47.90;26.20;;;;;;;0.35;83.88;98044.28;228298;1192;139261;-67
2021/11/28 06:47:06;;;;;;;56.60;25.50;;;;;;;0.36;83.88;98047.66;229092;1192;140245;-67
2021/11/28 06:52:09;;;;;;;53.50;21.80;;;;;;;0.30;83.20;98041.21;230206;1191;139310;-66
2021/11/28 07:00:20;;;;;;;51.50;27.50;;;;;;;0.33;83.56;98046.60;232631;1212;661788;-69
2021/11/28 07:05:33;;;;;;;43.30;22.70;;;;;;;0.30;83.69;98040.70;227378;1198;140875;-67
2021/11/28 07:10:39;;;;;;;56.90;24.40;;;;;;;0.27;83.64;98051.20;227044;1198;138804;-67
2021/11/28 07:15:43;;;;;;;58.90;26.90;;;;;;;0.33;83.81;98047.08;229720;1198;140589;-67
2021/11/28 07:20:55;;;;;;;39.00;21.80;;;;;;;0.39;83.81;98047.24;229621;1198;139729;-69
2021/11/28 07:26:00;;;;;;;50.90;21.50;;;;;;;0.37;83.49;98038.23;229279;1198;139154;-68
2021/11/28 07:31:05;;;;;;;51.30;26.90;;;;;;;0.43;83.64;98041.17;229455;1198;139420;-68
2021/11/28 07:36:49;;;;;;;52.30;28.30;;;;;;;0.45;83.21;98035.15;228968;1190;138612;-67
2021/11/28 07:41:52;;;;;;;49.10;23.60;;;;;;;0.58;83.69;98043.22;229424;1192;138148;-66
2021/11/28 07:47:04;;;;;;;55.80;25.80;;;;;;;0.63;83.73;98035.17;229685;1192;138009;-69
2021/11/28 07:52:08;;;;;;;56.40;25.90;;;;;;;0.65;83.11;98033.92;229368;1192;139959;-66
2021/11/28 07:57:18;;;;;;;60.20;27.20;;;;;;;0.67;82.88;98038.34;229221;1192;150516;-66
2021/11/28 08:02:22;;;;;;;62.00;28.60;;;;;;;0.73;83.73;98046.26;229170;1191;139015;-66
2021/11/28 08:07:45;;;;;;;62.90;25.80;;;;;;;0.79;83.72;98055.50;229612;1192;139683;-64
2021/11/28 08:12:50;;;;;;;57.80;24.60;;;;;;;0.85;83.56;98059.57;229452;1191;140368;-66
2021/11/28 08:18:00;;;;;;;50.20;25.40;;;;;;;0.93;83.27;98077.22;229174;1192;138931;-68
2021/11/28 08:23:08;;;;;;;59.80;28.70;;;;;;;1.04;83.30;98090.83;228564;1192;138907;-66
2021/11/28 08:28:12;;;;;;;51.20;25.50;;;;;;;1.08;83.24;98085.91;228805;1192;139492;-67
2021/11/28 08:33:15;;;;;;;64.20;28.30;;;;;;;1.07;83.06;98067.99;228524;1192;139264;-67
2021/11/28 08:38:19;;;;;;;61.90;24.80;;;;;;;1.10;83.31;98061.92;229291;1192;138197;-66
2021/11/28 08:43:23;;;;;;;62.40;32.20;;;;;;;1.21;83.09;98069.78;228418;1192;141946;-66
2021/11/28 08:48:31;;;;;;;35.40;19.10;;;;;;;1.29;83.17;98079.10;228777;1192;140615;-66
2021/11/28 08:53:36;;;;;;;48.00;22.50;;;;;;;1.17;82.39;98085.36;228102;1192;138486;-68
2021/11/28 08:58:40;;;;;;;50.00;24.30;;;;;;;1.15;82.49;98088.45;230101;1192;140440;-68
2021/11/28 09:03:44;;;;;;;54.40;26.20;;;;;;;1.15;82.76;98097.45;229361;1192;139376;-66
2021/11/28 09:08:48;;;;;;;36.70;18.40;;;;;;;1.16;82.66;98100.23;229490;1191;139486;-65
2021/11/28 09:13:51;;;;;;;50.00;22.70;;;;;;;1.14;82.20;98102.06;229265;1193;139444;-65
2021/11/28 09:19:05;;;;;;;47.20;22.70;;;;;;;1.15;82.34;98099.02;230091;1191;142316;-68
2021/11/28 09:24:37;;;;;;;49.40;23.10;;;;;;;1.17;82.60;98090.70;230134;1192;139319;-67
2021/11/28 09:29:46;;;;;;;59.50;26.60;;;;;;;1.28;82.94;98086.27;229968;1192;138965;-68
2021/11/28 09:34:50;;;;;;;50.20;20.30;;;;;;;1.33;82.64;98084.48;230449;1192;138764;-68
2021/11/28 09:39:53;;;;;;;48.80;21.00;;;;;;;1.26;81.91;98082.16;230772;1191;138833;-66
2021/11/28 09:44:59;;;;;;;42.00;20.70;;;;;;;1.19;82.01;98081.76;229870;1192;139615;-66
2021/11/28 09:50:06;;;;;;;39.60;23.60;;;;;;;1.16;81.94;98091.23;229557;1191;141382;-67
2021/11/28 09:55:22;;;;;;;50.90;22.90;;;;;;;1.19;82.32;98092.81;228007;1192;138872;-64
2021/11/28 10:00:45;;;;;;;45.10;22.00;;;;;;;1.23;82.23;98076.02;229443;1192;139242;-67
2021/11/28 10:05:51;;;;;;;56.40;24.70;;;;;;;1.29;82.43;98065.02;229901;1191;139019;-66
2021/11/28 10:11:21;;;;;;;54.50;28.00;;;;;;;1.36;82.65;98050.34;228251;1193;139265;-66
2021/11/28 10:16:25;;;;;;;54.10;25.20;;;;;;;1.47;82.70;98042.97;229026;1192;139443;-66
2021/11/28 10:21:38;;;;;;;60.20;25.10;;;;;;;1.47;82.43;98033.67;228884;1187;139400;-66
2021/11/28 10:27:18;;;;;;;59.80;31.30;;;;;;;1.55;82.43;98035.87;228195;1193;139463;-67
2021/11/28 10:32:24;;;;;;;57.80;27.20;;;;;;;1.57;82.26;98036.05;227642;1193;139477;-66
2021/11/28 10:37:45;;;;;;;54.60;27.50;;;;;;;1.60;82.31;98022.70;229724;1192;138367;-66
2021/11/28 10:43:11;;;;;;;65.30;30.30;;;;;;;1.67;82.61;98018.34;229202;1193;138982;-67
2021/11/28 10:48:35;;;;;;;76.90;30.50;;;;;;;1.74;82.51;98006.86;228885;1192;139221;-66
2021/11/28 10:53:48;;;;;;;81.20;38.50;;;;;;;1.79;82.12;98011.78;228995;1192;140142;-67
2021/11/28 10:58:51;;;;;;;73.30;33.30;;;;;;;1.87;82.34;98009.64;228923;1192;139666;-65
2021/11/28 11:03:53;;;;;;;65.10;30.20;;;;;;;1.91;82.17;97999.86;230707;1192;139309;-69
2021/11/28 11:09:21;;;;;;;86.90;33.70;;;;;;;1.90;81.81;98001.61;230434;1192;208506;-67
2021/11/28 11:14:25;;;;;;;73.80;32.90;;;;;;;1.89;81.86;97992.48;229411;1192;140015;-68
2021/11/28 11:19:44;;;;;;;72.30;34.00;;;;;;;1.91;81.93;97995.24;229730;1192;140128;-67
2021/11/28 11:24:57;;;;;;;67.30;30.60;;;;;;;1.88;82.21;97989.74;230777;1192;139565;-68
2021/11/28 11:30:03;;;;;;;70.20;30.60;;;;;;;1.83;81.71;97983.80;230543;1193;139672;-68
2021/11/28 11:35:10;;;;;;;101.30;39.60;;;;;;;1.79;81.87;97965.09;229911;1192;139781;-69
2021/11/28 11:40:34;;;;;;;106.20;39.70;;;;;;;1.76;81.83;97946.46;230817;1192;139705;-69
2021/11/28 11:45:37;;;;;;;75.30;29.50;;;;;;;1.75;82.00;97938.33;229064;1193;139474;-66
2021/11/28 11:50:41;;;;;;;97.80;37.60;;;;;;;1.79;82.13;97937.77;228640;1193;139761;-65
2021/11/28 11:55:50;;;;;;;110.40;46.10;;;;;;;1.82;82.11;97930.95;228536;1192;138709;-66
2021/11/28 12:01:15;;;;;;;104.00;40.00;;;;;;;1.76;82.41;97925.58;229249;1192;139051;-67
2021/11/28 12:06:56;;;;;;;96.20;37.70;;;;;;;1.72;82.21;97917.50;228636;1193;138835;-67
2021/11/28 12:12:13;;;;;;;80.80;33.50;;;;;;;1.70;82.11;97919.18;229353;1193;140649;-68
2021/11/28 12:17:41;;;;;;;96.40;38.40;;;;;;;1.71;82.37;97922.52;229160;1192;139829;-70
2021/11/28 12:22:49;;;;;;;180.00;76.70;;;;;;;1.81;82.45;97929.20;229119;1192;140228;-67
2021/11/28 12:27:54;;;;;;;115.90;51.40;;;;;;;1.79;82.18;97940.05;229662;1192;139403;-67
2021/11/28 12:33:01;;;;;;;103.00;43.50;;;;;;;1.75;82.14;97942.69;228735;1192;138876;-65
2021/11/28 12:38:04;;;;;;;100.20;48.00;;;;;;;1.73;82.09;97931.75;228826;1192;139800;-67
2021/11/28 12:43:22;;;;;;;99.80;47.00;;;;;;;1.66;82.20;97929.00;228274;1192;139475;-67
2021/11/28 12:48:28;;;;;;;74.10;36.30;;;;;;;1.56;82.55;97920.76;228997;1192;139073;-67
2021/11/28 12:53:42;;;;;;;70.10;32.70;;;;;;;1.46;82.07;97907.98;228303;1192;140654;-67
2021/11/28 12:59:15;;;;;;;77.10;36.50;;;;;;;1.39;82.27;97900.95;228946;1192;139826;-66
2021/11/28 13:04:58;;;;;;;76.00;30.80;;;;;;;1.33;82.51;97892.21;228402;1192;140376;-66
2021/11/28 13:10:26;;;;;;;68.10;34.00;;;;;;;1.36;82.59;97883.09;229360;1192;138839;-66
2021/11/28 13:15:36;;;;;;;92.30;39.50;;;;;;;1.44;82.65;97876.45;229801;1192;140568;-70
2021/11/28 13:20:41;;;;;;;80.80;38.10;;;;;;;1.46;82.67;97890.91;230514;1193;138943;-69
2021/11/28 13:25:55;;;;;;;80.70;35.90;;;;;;;1.44;82.37;97891.84;230396;1192;139841;-68
2021/11/28 13:31:32;;;;;;;82.90;37.40;;;;;;;1.47;82.70;97890.48;229675;1193;140069;-67
2021/11/28 13:36:48;;;;;;;93.30;38.30;;;;;;;1.50;82.57;97891.13;230553;1192;139185;-67
2021/11/28 13:41:54;;;;;;;84.70;41.50;;;;;;;1.49;82.94;97890.93;230696;1192;140295;-68
2021/11/28 13:47:00;;;;;;;76.30;31.80;;;;;;;1.48;83.01;97892.64;229142;1193;138814;-65
2021/11/28 13:52:11;;;;;;;85.60;36.80;;;;;;;1.52;82.37;97886.13;229437;1193;140876;-66
2021/11/28 13:57:21;;;;;;;80.80;35.20;;;;;;;1.54;82.70;97886.02;229535;1192;139194;-66
2021/11/28 14:02:31;;;;;;;78.00;37.50;;;;;;;1.49;82.78;97882.90;228357;1193;138472;-66
2021/11/28 14:07:40;;;;;;;84.50;30.30;;;;;;;1.44;82.60;97882.23;229001;1193;139319;-67
2021/11/28 14:12:47;;;;;;;90.40;37.50;;;;;;;1.38;82.38;97873.73;228640;1191;139696;-69
2021/11/28 14:18:08;;;;;;;86.10;33.50;;;;;;;1.31;82.53;97864.23;228162;1193;139080;-69
2021/11/28 14:23:13;;;;;;;81.10;37.20;;;;;;;1.22;82.42;97846.92;229819;1192;140788;-67
2021/11/28 14:28:31;;;;;;;83.90;31.50;;;;;;;1.15;83.05;97846.89;228922;1192;138671;-68
2021/11/28 14:33:39;;;;;;;73.10;28.90;;;;;;;1.09;83.02;97846.88;228986;1192;138704;-66
2021/11/28 14:39:10;;;;;;;69.60;31.70;;;;;;;1.09;82.87;97860.52;229130;1193;140037;-67
2021/11/28 14:44:22;;;;;;;74.70;30.90;;;;;;;1.08;83.06;97851.12;229831;1192;139714;-67
2021/11/28 14:49:30;;;;;;;61.80;31.40;;;;;;;1.04;83.13;97843.49;229443;1192;139087;-67
2021/11/28 14:54:36;;;;;;;72.80;29.60;;;;;;;0.99;83.31;97838.42;228966;1192;138570;-66
2021/11/28 14:59:48;;;;;;;72.60;30.20;;;;;;;0.98;82.99;97827.02;229196;1192;138844;-66
2021/11/28 15:05:22;;;;;;;59.20;27.70;;;;;;;1.01;83.14;97820.69;228951;1192;139696;-67
2021/11/28 15:10:27;;;;;;;57.00;28.50;;;;;;;1.01;83.63;97815.08;228680;1193;142027;-66
2021/11/28 15:15:31;;;;;;;57.20;23.70;;;;;;;1.02;83.57;97812.96;227925;1193;139412;-67
2021/11/28 15:20:35;;;;;;;62.60;29.30;;;;;;;1.06;83.78;97819.14;229517;1192;140456;-64
2021/11/28 15:25:38;;;;;;;55.70;28.10;;;;;;;1.10;83.45;97814.86;229408;1193;140463;-66
2021/11/28 15:30:55;;;;;;;50.20;24.60;;;;;;;1.08;83.53;97807.66;229344;1192;139034;-66
2021/11/28 15:35:58;;;;;;;50.60;25.60;;;;;;;1.06;83.72;97805.02;228852;1192;138318;-66
2021/11/28 15:41:00;;;;;;;57.20;28.20;;;;;;;1.07;83.40;97799.11;230158;1192;141097;-66
2021/11/28 15:46:04;;;;;;;46.30;28.10;;;;;;;1.16;83.60;97796.02;229935;1192;140630;-66
2021/11/28 15:51:07;;;;;;;53.80;25.40;;;;;;;1.08;83.35;97744.44;230668;1192;139566;-71
2021/11/28 15:56:11;;;;;;;56.60;25.60;;;;;;;0.98;83.12;97736.65;229799;1192;140567;-69
2021/11/28 16:01:22;;;;;;;45.40;25.70;;;;;;;0.98;83.26;97739.86;228587;1192;139559;-69
2021/11/28 16:06:25;;;;;;;41.20;21.40;;;;;;;0.93;83.43;97746.55;229297;1192;138731;-66
2021/11/28 16:11:29;;;;;;;42.50;19.90;;;;;;;0.89;83.35;97739.44;229530;1190;140646;-66
2021/11/28 16:16:34;;;;;;;37.70;21.90;;;;;;;0.91;83.41;97742.23;228323;1192;140476;-66
2021/11/28 16:21:38;;;;;;;40.50;22.80;;;;;;;0.88;83.48;97748.77;228468;1192;140833;-67
2021/11/28 16:26:41;;;;;;;32.30;18.50;;;;;;;0.81;83.58;97733.16;227921;1193;203335;-66
2021/11/28 16:31:47;;;;;;;38.40;18.20;;;;;;;0.73;83.77;97746.05;228436;1192;141323;-66
2021/11/28 16:36:49;;;;;;;38.10;23.20;;;;;;;0.75;84.00;97758.48;229236;1192;140699;-67
2021/11/28 16:41:53;;;;;;;32.50;18.30;;;;;;;0.82;83.61;97761.20;228326;1192;140680;-66
2021/11/28 16:46:57;;;;;;;34.50;18.30;;;;;;;0.79;83.84;97751.14;229000;1192;139687;-65
2021/11/28 16:52:01;;;;;;;39.60;19.50;;;;;;;0.75;84.06;97742.64;228763;1192;138501;-68
2021/11/28 16:57:07;;;;;;;33.40;19.20;;;;;;;0.75;84.07;97741.42;228004;1192;141168;-66
2021/11/28 17:02:10;;;;;;;35.80;20.50;;;;;;;0.79;83.77;97752.71;228447;1192;140940;-65
2021/11/28 17:07:13;;;;;;;39.70;21.70;;;;;;;0.84;84.22;97761.69;230246;1192;139797;-66
2021/11/28 17:12:16;;;;;;;30.90;19.30;;;;;;;0.83;84.31;97748.71;228260;1192;140901;-66
2021/11/28 17:17:20;;;;;;;36.60;18.30;;;;;;;0.83;84.10;97753.67;228461;1193;139752;-66
2021/11/28 17:22:23;;;;;;;33.20;17.40;;;;;;;0.85;84.20;97752.33;229162;1192;139995;-67
2021/11/28 17:27:26;;;;;;;35.90;18.40;;;;;;;0.85;83.94;97748.05;229524;1192;140542;-67
2021/11/28 17:32:28;;;;;;;34.00;19.40;;;;;;;0.81;84.36;97752.05;230633;1192;141208;-67
2021/11/28 17:50:05;;;;;;;32.80;19.10;;;;;;;0.65;84.69;97744.44;232829;1210;684458;-67
2021/11/28 17:55:21;;;;;;;34.20;20.60;;;;;;;0.63;84.87;97730.39;229028;1198;139686;-65
2021/11/28 18:00:42;;;;;;;34.10;19.70;;;;;;;0.69;84.68;97726.48;229677;1198;139695;-67
2021/11/28 18:05:45;;;;;;;36.80;21.50;;;;;;;0.69;84.22;97712.77;228336;1196;140043;-67
2021/11/28 18:10:51;;;;;;;33.80;20.10;;;;;;;0.66;84.47;97709.57;227940;1196;138943;-66
2021/11/28 18:15:57;;;;;;;39.30;19.80;;;;;;;0.66;84.31;97699.86;228492;1190;140303;-66
2021/11/28 18:21:18;;;;;;;34.70;20.50;;;;;;;0.73;84.42;97708.33;227637;1196;140054;-65
2021/11/28 18:26:30;;;;;;;40.70;22.10;;;;;;;0.80;84.48;97689.65;227996;1180;138947;-66
2021/11/28 18:32:17;;;;;;;;;;;;;;;;;;;;;
2021/11/28 18:37:34;;;;;;;37.50;19.50;;;;;;;0.89;84.23;97670.96;227269;1196;138872;-66
2021/11/28 18:42:37;;;;;;;34.70;23.80;;;;;;;0.89;84.06;97665.52;226883;1196;139336;-67
2021/11/28 18:55:37;;;;;;;30.90;18.20;;;;;;;0.88;84.35;97665.00;231974;1209;684274;-65
2021/11/28 19:00:41;;;;;;;31.40;17.80;;;;;;;0.80;84.46;97675.27;226280;1200;139018;-67
2021/11/28 19:05:44;;;;;;;35.20;18.20;;;;;;;0.83;84.68;97687.05;227310;1199;139393;-69
2021/11/28 19:11:20;;;;;;;30.60;18.70;;;;;;;0.88;84.55;97673.72;227189;1199;140480;-66
2021/11/28 19:16:44;;;;;;;;;;;;;;;;;;;;;
2021/11/28 19:21:48;;;;;;;33.90;18.60;;;;;;;0.87;84.56;97660.58;228031;1195;227952;-68
2021/11/28 19:26:54;;;;;;;32.10;17.10;;;;;;;0.88;84.48;97664.84;228606;1195;226319;-68
2021/11/28 19:32:06;;;;;;;40.10;21.70;;;;;;;0.92;84.48;97667.77;229298;1196;138829;-70
2021/11/28 19:37:09;;;;;;;30.00;19.30;;;;;;;0.92;84.74;97669.30;227527;1195;139604;-69
2021/11/28 19:42:17;;;;;;;32.80;19.00;;;;;;;0.92;84.54;97664.09;229336;1195;138362;-68
2021/11/28 19:47:19;;;;;;;28.00;17.80;;;;;;;0.96;84.48;97680.81;229593;1196;138803;-68
2021/11/28 19:52:23;;;;;;;31.10;20.10;;;;;;;0.99;84.33;97679.55;227787;1196;139443;-66
2021/11/28 19:57:28;;;;;;;30.20;21.40;;;;;;;0.95;84.13;97688.89;229738;1195;140075;-67
2021/11/28 20:02:33;;;;;;;38.00;19.70;;;;;;;0.92;84.21;97689.42;230030;1196;138792;-70
2021/11/28 20:15:33;;;;;;;40.90;20.80;;;;;;;1.03;84.04;97682.46;232400;1211;684837;-67
2021/11/28 20:20:39;;;;;;;34.50;18.40;;;;;;;0.95;84.65;97669.93;228106;1198;140436;-66
2021/11/28 20:25:47;;;;;;;44.50;21.10;;;;;;;0.93;84.47;97669.73;226387;1198;164392;-66
2021/11/28 20:30:51;;;;;;;47.10;22.20;;;;;;;0.89;84.44;97665.28;226181;1199;139744;-66
2021/11/28 20:35:54;;;;;;;38.30;21.20;;;;;;;0.87;84.46;97658.80;227144;1200;139560;-67
2021/11/28 20:40:58;;;;;;;34.20;18.50;;;;;;;0.82;84.12;97659.32;226385;1199;138248;-67
2021/11/28 20:46:04;;;;;;;40.10;20.70;;;;;;;0.75;84.46;97656.98;227438;1198;139265;-68
2021/11/28 20:51:08;;;;;;;40.80;20.20;;;;;;;0.78;84.93;97665.45;227244;1199;141008;-66
2021/11/28 20:56:24;;;;;;;41.60;22.30;;;;;;;0.82;84.40;97657.74;226175;1199;141551;-64
2021/11/28 21:01:38;;;;;;;36.80;21.50;;;;;;;0.82;84.75;97662.55;226332;1200;141128;-68
2021/11/28 21:06:41;;;;;;;42.70;21.60;;;;;;;0.83;84.79;97667.82;226649;1198;140818;-70
2021/11/28 21:11:44;;;;;;;36.90;18.00;;;;;;;0.83;84.55;97660.27;226402;1200;139734;-66
2021/11/28 21:16:47;;;;;;;35.40;18.30;;;;;;;0.83;84.95;97644.20;227044;1198;142798;-66
2021/11/28 21:21:49;;;;;;;35.40;22.20;;;;;;;0.86;84.88;97637.35;227509;1200;139437;-66
2021/11/28 21:26:52;;;;;;;30.50;17.80;;;;;;;0.92;85.09;97633.86;227793;1200;138688;-66
2021/11/28 21:31:58;;;;;;;39.40;25.00;;;;;;;0.92;84.82;97619.02;227452;1199;140312;-67
2021/11/28 21:37:02;;;;;;;34.40;20.80;;;;;;;0.93;84.58;97609.66;226678;1196;140005;-66
2021/11/28 21:42:06;;;;;;;34.10;18.00;;;;;;;0.92;84.19;97613.11;226779;1196;139870;-67
2021/11/28 21:47:10;;;;;;;35.90;22.60;;;;;;;0.90;84.78;97621.99;229824;1196;139904;-69
2021/11/28 21:52:15;;;;;;;36.90;17.70;;;;;;;0.88;84.70;97620.78;228423;1195;141640;-67
2021/11/28 21:57:28;;;;;;;32.20;18.40;;;;;;;0.88;84.73;97625.61;226726;1196;140189;-66
2021/11/28 22:02:31;;;;;;;35.40;22.60;;;;;;;0.92;84.60;97619.77;229770;1196;138920;-68
2021/11/28 22:07:37;;;;;;;38.70;20.90;;;;;;;0.90;84.66;97620.61;229816;1189;139653;-68
2021/11/28 22:12:41;;;;;;;33.40;18.50;;;;;;;0.90;84.76;97630.39;230099;1195;139589;-67
2021/11/28 22:17:47;;;;;;;33.20;20.20;;;;;;;0.96;84.41;97622.58;230227;1195;138988;-67
2021/11/28 22:23:24;;;;;;;38.00;20.00;;;;;;;1.04;84.84;97629.65;229176;1195;141767;-67
2021/11/28 22:28:33;;;;;;;35.70;19.90;;;;;;;1.09;84.25;97633.46;228521;1195;140116;-67
2021/11/28 22:33:36;;;;;;;34.30;18.00;;;;;;;1.10;84.50;97633.38;227279;1195;138671;-67
2021/11/28 22:38:40;;;;;;;39.80;20.10;;;;;;;1.12;84.36;97631.60;228236;1196;139169;-67
2021/11/28 22:43:54;;;;;;;37.60;21.20;;;;;;;1.11;84.41;97626.33;228267;1196;139310;-67
2021/11/28 22:48:57;;;;;;;34.40;20.30;;;;;;;1.10;84.50;97620.68;227865;1196;139505;-66
2021/11/28 22:54:03;;;;;;;32.20;16.00;;;;;;;1.09;84.44;97613.63;228449;1196;139376;-67
2021/11/28 22:59:06;;;;;;;36.40;20.50;;;;;;;1.16;84.47;97602.88;228066;1195;139192;-69
2021/11/28 23:04:15;;;;;;;35.00;19.80;;;;;;;1.17;84.23;97609.77;226854;1195;139869;-68
2021/11/28 23:09:23;;;;;;;37.60;20.10;;;;;;;1.14;84.36;97615.70;228426;1195;139533;-74
2021/11/28 23:14:27;;;;;;;31.10;17.70;;;;;;;1.11;84.13;97617.98;227605;1195;139701;-73
2021/11/28 23:19:29;;;;;;;34.80;22.10;;;;;;;1.07;84.12;97622.18;227259;1196;153849;-74
2021/11/28 23:24:31;;;;;;;35.30;19.20;;;;;;;1.03;84.22;97621.51;227086;1196;140236;-72
2021/11/28 23:29:33;;;;;;;34.60;20.10;;;;;;;1.03;84.69;97621.19;227262;1195;139024;-69
2021/11/28 23:34:37;;;;;;;38.10;17.30;;;;;;;1.01;84.54;97614.84;226903;1195;140603;-67
2021/11/28 23:39:43;;;;;;;41.80;23.70;;;;;;;1.03;84.50;97607.66;227549;1195;242985;-68
2021/11/28 23:44:45;;;;;;;38.40;19.00;;;;;;;1.04;84.41;97603.74;228423;1195;139001;-66
2021/11/28 23:49:48;;;;;;;37.20;21.20;;;;;;;0.97;84.43;97600.41;228571;1193;139505;-68
2021/11/28 23:54:50;;;;;;;36.40;18.20;;;;;;;0.93;84.38;97595.34;229546;1193;139646;-67
2021/11/28 23:59:52;;;;;;;44.30;24.60;;;;;;;0.99;84.30;97595.28;228729;1193;139760;-67
